createdAt,value
2019-03-16T00:00:25.369Z,995
2019-03-16T00:01:35.324Z,994.69
2019-03-16T00:02:57.683Z,994.82
2019-03-16T00:04:07.620Z,994.99
2019-03-16T00:05:17.311Z,994.74
2019-03-16T00:06:27.258Z,994.91
2019-03-16T00:07:37.202Z,995.08
2019-03-16T00:08:46.896Z,994.87
2019-03-16T00:09:56.688Z,995.1
2019-03-16T00:11:06.664Z,994.81
2019-03-16T00:12:16.357Z,995.14
2019-03-16T00:13:26.056Z,995.15
2019-03-16T00:14:36.085Z,995.41
2019-03-16T00:15:45.794Z,995.08
2019-03-16T00:16:55.489Z,995.16
2019-03-16T00:18:05.431Z,995.1
2019-03-16T00:19:15.138Z,995.07
2019-03-16T00:20:24.848Z,995.16
2019-03-16T00:21:34.798Z,995.12
2019-03-16T00:22:44.264Z,995.03
2019-03-16T00:23:54.265Z,995.05
2019-03-16T00:25:04.220Z,995.17
2019-03-16T00:26:14.255Z,995.19
2019-03-16T00:27:24.182Z,995.25
2019-03-16T00:28:33.867Z,995.16
2019-03-16T00:29:43.793Z,995.18
2019-03-16T00:30:53.763Z,995.08
2019-03-16T00:32:12.755Z,995.16
2019-03-16T00:33:23.300Z,995.17
2019-03-16T00:34:33.260Z,995.41
2019-03-16T00:35:42.953Z,995.3
2019-03-16T00:36:52.906Z,995.24
2019-03-16T00:38:02.847Z,995.31
2019-03-16T00:39:12.867Z,995.61
2019-03-16T00:40:22.606Z,995.76
2019-03-16T00:41:32.547Z,995.31
2019-03-16T00:42:42.347Z,995.47
2019-03-16T00:43:52.307Z,995.5
2019-03-16T00:45:02.249Z,995.64
2019-03-16T00:46:12.257Z,995.51
2019-03-16T00:47:21.693Z,995.6
2019-03-16T00:48:31.392Z,995.52
2019-03-16T00:49:41.083Z,995.55
2019-03-16T00:50:51.047Z,995.61
2019-03-16T00:52:00.481Z,995.59
2019-03-16T00:53:10.432Z,995.67
2019-03-16T00:54:20.373Z,995.46
2019-03-16T00:55:30.337Z,995.66
2019-03-16T00:56:39.779Z,995.66
2019-03-16T00:57:49.216Z,995.55
2019-03-16T00:58:58.910Z,995.57
2019-03-16T01:00:08.837Z,995.67
2019-03-16T01:01:18.789Z,996.03
2019-03-16T01:02:28.846Z,995.77
2019-03-16T01:03:40.540Z,995.73
2019-03-16T01:04:50.235Z,995.72
2019-03-16T01:06:00.197Z,995.61
2019-03-16T01:07:10.186Z,995.66
2019-03-16T01:08:20.138Z,995.71
2019-03-16T01:09:30.075Z,995.73
2019-03-16T01:10:40.028Z,995.72
2019-03-16T01:11:49.977Z,995.81
2019-03-16T01:13:00.015Z,995.74
2019-03-16T01:14:09.982Z,995.83
2019-03-16T01:15:19.929Z,995.89
2019-03-16T01:16:29.912Z,995.74
2019-03-16T01:17:39.856Z,995.79
2019-03-16T01:18:49.891Z,995.8
2019-03-16T01:19:59.874Z,995.87
2019-03-16T01:21:09.323Z,995.9
2019-03-16T01:22:19.257Z,996.01
2019-03-16T01:23:28.950Z,996.09
2019-03-16T01:24:38.884Z,995.98
2019-03-16T01:25:48.864Z,996.17
2019-03-16T01:26:58.805Z,995.99
2019-03-16T01:28:08.753Z,996.1
2019-03-16T01:29:18.191Z,995.92
2019-03-16T01:30:28.183Z,995.91
2019-03-16T01:31:38.123Z,996.13
2019-03-16T01:32:48.162Z,995.92
2019-03-16T01:33:57.857Z,996.05
2019-03-16T01:35:07.541Z,996.29
2019-03-16T01:36:17.474Z,996.01
2019-03-16T01:37:27.412Z,995.95
2019-03-16T01:38:37.341Z,996.18
2019-03-16T01:39:47.295Z,996.07
2019-03-16T01:40:57.230Z,996.21
2019-03-16T01:42:07.191Z,996.3
2019-03-16T01:43:16.451Z,996.11
2019-03-16T01:44:26.477Z,996.21
2019-03-16T01:45:36.494Z,996.12
2019-03-16T01:46:46.428Z,996.31
2019-03-16T01:47:56.366Z,996.19
2019-03-16T01:49:06.312Z,996.24
2019-03-16T01:50:16.008Z,996.24
2019-03-16T01:51:29.225Z,996.5
2019-03-16T01:52:38.659Z,996.45
2019-03-16T01:53:48.593Z,996.29
2019-03-16T01:54:58.289Z,996.73
2019-03-16T01:56:08.034Z,996.35
2019-03-16T01:57:17.730Z,996.31
2019-03-16T01:58:27.411Z,996.17
2019-03-16T01:59:37.354Z,996.38
2019-03-16T02:00:47.063Z,996.23
2019-03-16T02:01:56.755Z,996.3
2019-03-16T02:03:06.713Z,996.62
2019-03-16T02:04:16.652Z,996.34
2019-03-16T02:05:25.838Z,996.37
2019-03-16T02:06:35.775Z,996.41
2019-03-16T02:07:45.472Z,996.33
2019-03-16T02:08:55.162Z,996.21
2019-03-16T02:10:05.115Z,996.45
2019-03-16T02:11:15.074Z,996.3
2019-03-16T02:12:25.024Z,996.4
2019-03-16T02:13:34.460Z,996.28
2019-03-16T02:14:44.250Z,996.41
2019-03-16T02:15:53.950Z,996.45
2019-03-16T02:17:17.918Z,996.46
2019-03-16T02:18:27.873Z,996.41
2019-03-16T02:19:37.902Z,996.48
2019-03-16T02:20:47.850Z,996.47
2019-03-16T02:21:57.556Z,996.59
2019-03-16T02:23:07.505Z,996.52
2019-03-16T02:24:17.446Z,996.57
2019-03-16T02:25:27.147Z,996.6
2019-03-16T02:26:37.087Z,996.5
2019-03-16T02:27:47.027Z,996.6
2019-03-16T02:28:57.008Z,996.55
2019-03-16T02:30:06.544Z,996.59
2019-03-16T02:31:16.275Z,996.55
2019-03-16T02:32:26.287Z,996.84
2019-03-16T02:33:36.259Z,996.57
2019-03-16T02:34:45.993Z,996.46
2019-03-16T02:35:55.959Z,996.8
2019-03-16T02:37:05.428Z,996.72
2019-03-16T02:38:15.165Z,996.82
2019-03-16T02:39:25.135Z,996.72
2019-03-16T02:40:35.105Z,996.83
2019-03-16T02:41:44.578Z,996.86
2019-03-16T02:42:54.530Z,996.87
2019-03-16T02:44:04.477Z,996.89
2019-03-16T02:45:18.372Z,996.67
2019-03-16T02:46:28.329Z,997.13
2019-03-16T02:47:38.310Z,996.95
2019-03-16T02:48:48.275Z,996.92
2019-03-16T02:49:58.245Z,996.94
2019-03-16T02:51:08.268Z,997.15
2019-03-16T02:52:18.209Z,997.18
2019-03-16T02:53:28.207Z,997.05
2019-03-16T02:54:38.169Z,997.12
2019-03-16T02:55:47.878Z,997.25
2019-03-16T02:56:57.982Z,997.07
2019-03-16T02:58:07.515Z,997.29
2019-03-16T02:59:16.997Z,997.29
2019-03-16T03:00:26.950Z,997.3
2019-03-16T03:01:36.671Z,997.32
2019-03-16T03:02:46.660Z,997.35
2019-03-16T03:03:56.623Z,997.3
2019-03-16T03:05:06.568Z,997.39
2019-03-16T03:06:16.450Z,997.4
2019-03-16T03:07:26.526Z,997.51
2019-03-16T03:08:36.482Z,997.31
2019-03-16T03:09:46.463Z,997.28
2019-03-16T03:10:55.939Z,997.35
2019-03-16T03:12:05.936Z,997.41
2019-03-16T03:13:15.951Z,997.29
2019-03-16T03:14:25.763Z,997.45
2019-03-16T03:15:35.493Z,997.25
2019-03-16T03:16:45.453Z,997.47
2019-03-16T03:17:55.540Z,997.38
2019-03-16T03:19:05.292Z,997.47
2019-03-16T03:20:15.299Z,997.4
2019-03-16T03:21:24.993Z,997.47
2019-03-16T03:22:34.692Z,997.4
2019-03-16T03:23:44.702Z,997.46
2019-03-16T03:24:54.411Z,997.5
2019-03-16T03:26:04.356Z,997.38
2019-03-16T03:27:14.063Z,997.5
2019-03-16T03:28:24.017Z,997.64
2019-03-16T03:29:34.008Z,997.7
2019-03-16T03:30:43.991Z,997.6
2019-03-16T03:31:53.515Z,997.74
2019-03-16T03:33:03.618Z,997.68
2019-03-16T03:34:13.371Z,997.65
2019-03-16T03:35:28.894Z,997.66
2019-03-16T03:36:39.333Z,997.66
2019-03-16T03:37:49.269Z,997.71
2019-03-16T03:38:59.088Z,997.76
2019-03-16T03:40:09.043Z,997.72
2019-03-16T03:41:19.257Z,997.71
2019-03-16T03:42:29.227Z,997.64
2019-03-16T03:43:39.201Z,997.72
2019-03-16T03:44:48.928Z,997.78
2019-03-16T03:45:58.462Z,997.69
2019-03-16T03:47:08.408Z,997.82
2019-03-16T03:48:18.364Z,997.77
2019-03-16T03:49:28.074Z,997.87
2019-03-16T03:50:38.033Z,997.73
2019-03-16T03:51:47.745Z,997.83
2019-03-16T03:52:57.726Z,997.93
2019-03-16T03:54:07.213Z,997.87
2019-03-16T03:55:17.184Z,997.94
2019-03-16T03:56:27.128Z,998
2019-03-16T03:57:36.569Z,997.92
2019-03-16T03:58:46.430Z,998.02
2019-03-16T03:59:56.408Z,998.06
2019-03-16T04:01:06.361Z,998.07
2019-03-16T04:02:16.083Z,998.03
2019-03-16T04:03:25.779Z,997.95
2019-03-16T04:04:35.472Z,997.92
2019-03-16T04:05:45.438Z,997.99
2019-03-16T04:06:55.401Z,998.02
2019-03-16T04:08:05.350Z,998.16
2019-03-16T04:09:15.229Z,998.08
2019-03-16T04:10:25.194Z,998.27
2019-03-16T04:11:34.647Z,998.25
2019-03-16T04:12:44.613Z,998.29
2019-03-16T04:13:54.327Z,998.17
2019-03-16T04:15:04.066Z,998.2
2019-03-16T04:16:13.824Z,998.07
2019-03-16T04:17:23.781Z,998.26
2019-03-16T04:18:33.730Z,998.31
2019-03-16T04:19:43.707Z,998.31
2019-03-16T04:20:53.660Z,998.33
2019-03-16T04:22:03.394Z,998.39
2019-03-16T04:23:13.356Z,998.43
2019-03-16T04:24:23.096Z,998.43
2019-03-16T04:25:33.059Z,998.4
2019-03-16T04:26:42.760Z,998.48
2019-03-16T04:27:52.461Z,998.42
2019-03-16T04:29:02.391Z,998.55
2019-03-16T04:30:12.067Z,998.61
2019-03-16T04:31:21.765Z,998.59
2019-03-16T04:32:31.717Z,998.67
2019-03-16T04:33:41.424Z,998.68
2019-03-16T04:34:50.871Z,998.74
2019-03-16T04:36:00.962Z,998.68
2019-03-16T04:37:10.901Z,998.53
2019-03-16T04:38:20.596Z,998.68
2019-03-16T04:39:30.063Z,998.68
2019-03-16T04:40:40.022Z,998.78
2019-03-16T04:41:52.398Z,998.73
2019-03-16T04:43:02.333Z,998.79
2019-03-16T04:44:12.025Z,998.71
2019-03-16T04:45:21.714Z,998.86
2019-03-16T04:46:31.721Z,998.78
2019-03-16T04:47:41.676Z,998.78
2019-03-16T04:48:51.106Z,998.77
2019-03-16T04:50:00.796Z,998.89
2019-03-16T04:51:10.829Z,998.91
2019-03-16T04:52:20.770Z,998.77
2019-03-16T04:53:30.716Z,998.83
2019-03-16T04:54:40.858Z,998.77
2019-03-16T04:55:50.553Z,998.97
2019-03-16T04:57:00.243Z,998.81
2019-03-16T04:58:10.191Z,998.84
2019-03-16T04:59:20.132Z,998.87
2019-03-16T05:00:29.338Z,998.87
2019-03-16T05:01:39.042Z,998.88
2019-03-16T05:02:49.003Z,998.95
2019-03-16T05:03:58.450Z,998.97
2019-03-16T05:05:08.145Z,999.16
2019-03-16T05:06:18.398Z,998.95
2019-03-16T05:07:28.338Z,998.95
2019-03-16T05:08:38.283Z,999.07
2019-03-16T05:09:48.265Z,999.02
2019-03-16T05:10:58.218Z,998.95
2019-03-16T05:12:08.151Z,999.05
2019-03-16T05:13:17.842Z,998.92
2019-03-16T05:14:27.686Z,999.03
2019-03-16T05:15:37.618Z,998.94
2019-03-16T05:16:47.543Z,999
2019-03-16T05:17:57.226Z,999.08
2019-03-16T05:19:07.169Z,999.19
2019-03-16T05:20:17.129Z,999.07
2019-03-16T05:21:27.081Z,999.04
2019-03-16T05:22:36.775Z,999.03
2019-03-16T05:23:46.230Z,999
2019-03-16T05:24:55.920Z,999.13
2019-03-16T05:26:05.625Z,999.15
2019-03-16T05:27:15.566Z,999.19
2019-03-16T05:28:25.517Z,999.22
2019-03-16T05:29:35.462Z,999.2
2019-03-16T05:30:45.396Z,999.19
2019-03-16T05:31:55.409Z,999.23
2019-03-16T05:33:05.366Z,999.23
2019-03-16T05:34:15.056Z,999.29
2019-03-16T05:35:24.499Z,999.23
2019-03-16T05:36:34.436Z,999.31
2019-03-16T05:37:44.165Z,999.29
2019-03-16T05:38:54.093Z,999.35
2019-03-16T05:40:03.790Z,999.28
2019-03-16T05:41:13.872Z,999.31
2019-03-16T05:42:23.823Z,999.27
2019-03-16T05:43:33.768Z,999.34
2019-03-16T05:44:43.447Z,999.34
2019-03-16T05:45:53.386Z,999.38
2019-03-16T05:47:03.351Z,999.45
2019-03-16T05:48:13.279Z,999.43
2019-03-16T05:49:23.213Z,999.52
2019-03-16T05:50:33.156Z,999.39
2019-03-16T05:51:43.100Z,999.51
2019-03-16T05:52:53.045Z,999.57
2019-03-16T05:54:02.995Z,999.7
2019-03-16T05:55:12.935Z,999.59
2019-03-16T05:56:22.948Z,999.8
2019-03-16T05:57:32.653Z,999.66
2019-03-16T05:58:42.586Z,999.66
2019-03-16T05:59:52.539Z,999.62
2019-03-16T06:01:02.477Z,999.7
2019-03-16T06:02:12.508Z,999.75
2019-03-16T06:03:22.199Z,999.77
2019-03-16T06:04:32.146Z,999.75
2019-03-16T06:05:41.845Z,999.82
2019-03-16T06:06:51.787Z,999.89
2019-03-16T06:08:01.232Z,999.88
2019-03-16T06:09:10.916Z,1000
2019-03-16T06:10:20.605Z,999.94
2019-03-16T06:11:30.551Z,999.88
2019-03-16T06:12:40.335Z,999.9
2019-03-16T06:13:51.885Z,999.91
2019-03-16T06:15:01.592Z,1000.06
2019-03-16T06:16:11.303Z,999.91
2019-03-16T06:17:21.247Z,1000.02
2019-03-16T06:18:31.033Z,1000
2019-03-16T06:19:40.976Z,999.93
2019-03-16T06:20:50.671Z,1000.04
2019-03-16T06:22:00.602Z,999.97
2019-03-16T06:23:10.295Z,1000.06
2019-03-16T06:24:19.990Z,1000.01
2019-03-16T06:25:33.305Z,1000.07
2019-03-16T06:26:43.250Z,1000.38
2019-03-16T06:27:53.211Z,1000.18
2019-03-16T06:29:02.891Z,1000.09
2019-03-16T06:30:12.589Z,1000.16
2019-03-16T06:31:26.102Z,1000.15
2019-03-16T06:32:36.041Z,1000.15
2019-03-16T06:33:45.991Z,1000.15
2019-03-16T06:34:55.939Z,1000.33
2019-03-16T06:36:05.882Z,1000.28
2019-03-16T06:37:15.596Z,1000.09
2019-03-16T06:38:25.538Z,1000.22
2019-03-16T06:39:35.495Z,1000.26
2019-03-16T06:40:45.177Z,1000.29
2019-03-16T06:41:54.604Z,1000.48
2019-03-16T06:43:04.544Z,1000.32
2019-03-16T06:44:14.495Z,1000.34
2019-03-16T06:45:24.187Z,1000.41
2019-03-16T06:46:34.125Z,1000.5
2019-03-16T06:47:43.824Z,1000.43
2019-03-16T06:48:55.400Z,1000.53
2019-03-16T06:50:05.350Z,1000.46
2019-03-16T06:51:14.547Z,1000.44
2019-03-16T06:52:24.249Z,1000.51
2019-03-16T06:53:33.951Z,1000.59
2019-03-16T06:54:43.889Z,1000.56
2019-03-16T06:55:53.835Z,1000.55
2019-03-16T06:57:03.533Z,1000.5
2019-03-16T06:58:12.734Z,1000.58
2019-03-16T06:59:22.671Z,1000.52
2019-03-16T07:00:32.606Z,1000.54
2019-03-16T07:01:42.049Z,1000.59
2019-03-16T07:02:51.757Z,1000.51
2019-03-16T07:04:01.197Z,1000.49
2019-03-16T07:05:11.137Z,1000.55
2019-03-16T07:06:38.172Z,1000.57
2019-03-16T07:07:47.875Z,1000.64
2019-03-16T07:08:57.806Z,1000.54
2019-03-16T07:10:07.515Z,1000.62
2019-03-16T07:11:17.464Z,1000.48
2019-03-16T07:12:27.412Z,1000.81
2019-03-16T07:13:40.069Z,1000.63
2019-03-16T07:14:50.006Z,1000.71
2019-03-16T07:15:59.955Z,1000.62
2019-03-16T07:17:09.395Z,1000.67
2019-03-16T07:18:19.339Z,1000.69
2019-03-16T07:19:29.029Z,1000.7
2019-03-16T07:20:41.564Z,1000.66
2019-03-16T07:21:51.293Z,1000.75
2019-03-16T07:23:00.749Z,1000.85
2019-03-16T07:24:10.543Z,1000.83
2019-03-16T07:25:20.494Z,1000.71
2019-03-16T07:26:30.223Z,1000.82
2019-03-16T07:27:40.192Z,1000.83
2019-03-16T07:28:50.367Z,1000.84
2019-03-16T07:30:00.084Z,1000.85
2019-03-16T07:31:09.831Z,1000.7
2019-03-16T07:32:19.776Z,1000.77
2019-03-16T07:33:28.977Z,1000.81
2019-03-16T07:34:38.683Z,1000.84
2019-03-16T07:35:48.120Z,1000.9
2019-03-16T07:36:58.081Z,1000.76
2019-03-16T07:38:08.033Z,1000.95
2019-03-16T07:39:17.961Z,1000.92
2019-03-16T07:40:27.909Z,1000.97
2019-03-16T07:41:37.857Z,1001.04
2019-03-16T07:42:47.859Z,1001
2019-03-16T07:43:57.798Z,1001.08
2019-03-16T07:45:08.337Z,1001.21
2019-03-16T07:46:18.463Z,1001.1
2019-03-16T07:47:28.444Z,1001.03
2019-03-16T07:48:37.886Z,1001.04
2019-03-16T07:49:47.914Z,1000.95
2019-03-16T07:50:57.862Z,1001.14
2019-03-16T07:52:07.308Z,1001.08
2019-03-16T07:53:17.264Z,1001.12
2019-03-16T07:54:27.232Z,1001.21
2019-03-16T07:55:42.089Z,1001.15
2019-03-16T07:56:52.355Z,1001.16
2019-03-16T07:58:02.313Z,1001.21
2019-03-16T07:59:12.261Z,1001.17
2019-03-16T08:00:21.797Z,1001.19
2019-03-16T08:01:31.759Z,1001.14
2019-03-16T08:02:41.442Z,1001.15
2019-03-16T08:03:51.391Z,1001.13
2019-03-16T08:05:01.079Z,1001.25
2019-03-16T08:06:25.077Z,1001.08
2019-03-16T08:07:38.468Z,1001.23
2019-03-16T08:08:48.174Z,1001.32
2019-03-16T08:09:58.220Z,1001.13
2019-03-16T08:11:11.085Z,1001.19
2019-03-16T08:12:20.793Z,1001.27
2019-03-16T08:13:33.089Z,1001.29
2019-03-16T08:14:42.781Z,1001.33
2019-03-16T08:15:52.460Z,1001.37
2019-03-16T08:17:02.183Z,1001.34
2019-03-16T08:18:11.874Z,1001.32
2019-03-16T08:19:21.590Z,1001.27
2019-03-16T08:20:31.773Z,1001.19
2019-03-16T08:21:41.751Z,1001.26
2019-03-16T08:22:51.684Z,1001.24
2019-03-16T08:24:01.741Z,1001.37
2019-03-16T08:25:11.509Z,1001.13
2019-03-16T08:26:21.450Z,1001.41
2019-03-16T08:27:31.401Z,1001.45
2019-03-16T08:28:53.994Z,1001.5
2019-03-16T08:30:06.462Z,1001.48
2019-03-16T08:31:16.410Z,1001.53
2019-03-16T08:32:26.097Z,1001.66
2019-03-16T08:33:35.791Z,1001.73
2019-03-16T08:34:45.735Z,1001.7
2019-03-16T08:35:55.676Z,1001.54
2019-03-16T08:37:05.623Z,1001.66
2019-03-16T08:38:15.331Z,1001.64
2019-03-16T08:39:25.043Z,1001.54
2019-03-16T08:40:34.730Z,1001.61
2019-03-16T08:41:44.671Z,1001.59
2019-03-16T08:42:53.708Z,1001.53
2019-03-16T08:44:03.656Z,1001.66
2019-03-16T08:45:13.604Z,1001.47
2019-03-16T08:46:23.549Z,1001.52
2019-03-16T08:47:33.487Z,1001.63
2019-03-16T08:48:43.185Z,1001.59
2019-03-16T08:49:52.879Z,1001.57
2019-03-16T08:51:02.568Z,1001.58
2019-03-16T08:52:12.519Z,1001.59
2019-03-16T08:53:22.985Z,1001.63
2019-03-16T08:54:32.883Z,1001.56
2019-03-16T08:55:42.830Z,1001.65
2019-03-16T08:56:52.781Z,1001.57
2019-03-16T08:58:06.199Z,1001.59
2019-03-16T08:59:16.261Z,1001.68
2019-03-16T09:00:27.168Z,1001.59
2019-03-16T09:01:37.122Z,1001.52
2019-03-16T09:02:46.325Z,1001.57
2019-03-16T09:03:56.031Z,1001.49
2019-03-16T09:05:05.985Z,1001.59
2019-03-16T09:06:15.670Z,1001.63
2019-03-16T09:07:25.625Z,1001.57
2019-03-16T09:08:35.322Z,1001.63
2019-03-16T09:09:45.064Z,1001.52
2019-03-16T09:10:54.785Z,1001.52
2019-03-16T09:12:04.728Z,1001.61
2019-03-16T09:13:14.444Z,1001.58
2019-03-16T09:14:24.124Z,1001.63
2019-03-16T09:15:34.070Z,1001.54
2019-03-16T09:16:43.270Z,1001.74
2019-03-16T09:17:53.232Z,1001.55
2019-03-16T09:19:03.188Z,1001.55
2019-03-16T09:20:13.176Z,1001.62
2019-03-16T09:21:23.120Z,1001.52
2019-03-16T09:22:32.319Z,1001.5
2019-03-16T09:23:42.023Z,1001.47
2019-03-16T09:24:51.998Z,1001.54
2019-03-16T09:26:01.932Z,1001.59
2019-03-16T09:27:11.881Z,1001.51
2019-03-16T09:28:33.882Z,1001.46
2019-03-16T09:29:43.828Z,1001.74
2019-03-16T09:30:56.365Z,1001.63
2019-03-16T09:32:06.192Z,1001.71
2019-03-16T09:33:16.006Z,1001.63
2019-03-16T09:34:26.407Z,1001.64
2019-03-16T09:35:36.193Z,1001.58
2019-03-16T09:36:45.885Z,1001.64
2019-03-16T09:37:55.828Z,1001.68
2019-03-16T09:39:08.162Z,1001.58
2019-03-16T09:40:18.100Z,1001.61
2019-03-16T09:41:28.058Z,1001.55
2019-03-16T09:42:38.014Z,1001.64
2019-03-16T09:43:47.796Z,1001.74
2019-03-16T09:44:57.752Z,1001.73
2019-03-16T09:46:07.716Z,1001.79
2019-03-16T09:47:17.700Z,1001.73
2019-03-16T09:48:27.706Z,1001.7
2019-03-16T09:49:37.653Z,1001.82
2019-03-16T09:50:47.606Z,1001.65
2019-03-16T09:51:57.563Z,1001.68
2019-03-16T09:53:07.281Z,1001.8
2019-03-16T09:54:17.240Z,1001.74
2019-03-16T09:55:26.718Z,1001.67
2019-03-16T09:56:37.882Z,1001.79
2019-03-16T09:58:01.074Z,1001.69
2019-03-16T09:59:10.766Z,1001.76
2019-03-16T10:00:20.476Z,1001.74
2019-03-16T10:01:30.427Z,1001.73
2019-03-16T10:02:40.378Z,1001.8
2019-03-16T10:03:50.325Z,1001.75
2019-03-16T10:05:00.390Z,1001.67
2019-03-16T10:06:09.966Z,1001.85
2019-03-16T10:07:19.917Z,1001.7
2019-03-16T10:08:29.698Z,1001.69
2019-03-16T10:09:39.395Z,1001.63
2019-03-16T10:10:49.362Z,1001.76
2019-03-16T10:11:59.064Z,1001.65
2019-03-16T10:13:08.755Z,1001.73
2019-03-16T10:14:18.485Z,1001.68
2019-03-16T10:15:28.461Z,1001.83
2019-03-16T10:16:38.156Z,1001.72
2019-03-16T10:17:48.128Z,1001.65
2019-03-16T10:18:58.061Z,1001.8
2019-03-16T10:20:08.008Z,1001.79
2019-03-16T10:21:18.875Z,1001.76
2019-03-16T10:22:28.982Z,1001.79
2019-03-16T10:23:38.940Z,1001.62
2019-03-16T10:24:48.400Z,1001.73
2019-03-16T10:25:58.348Z,1001.56
2019-03-16T10:27:08.294Z,1001.62
2019-03-16T10:28:18.260Z,1001.6
2019-03-16T10:29:28.245Z,1001.63
2019-03-16T10:30:38.211Z,1001.44
2019-03-16T10:31:47.923Z,1001.52
2019-03-16T10:32:57.888Z,1001.52
2019-03-16T10:34:07.882Z,1001.57
2019-03-16T10:35:17.593Z,1001.59
2019-03-16T10:36:27.607Z,1001.75
2019-03-16T10:37:37.559Z,1001.52
2019-03-16T10:38:47.494Z,1001.59
2019-03-16T10:39:56.949Z,1001.56
2019-03-16T10:41:06.655Z,1001.71
2019-03-16T10:42:16.644Z,1001.68
2019-03-16T10:43:26.625Z,1001.59
2019-03-16T10:44:36.574Z,1001.64
2019-03-16T10:45:46.538Z,1001.6
2019-03-16T10:46:56.241Z,1001.62
2019-03-16T10:48:06.205Z,1001.6
2019-03-16T10:49:15.906Z,1001.69
2019-03-16T10:50:25.860Z,1001.64
2019-03-16T10:51:35.802Z,1001.63
2019-03-16T10:52:45.762Z,1001.61
2019-03-16T10:53:55.711Z,1001.73
2019-03-16T10:55:05.412Z,1001.65
2019-03-16T10:56:14.867Z,1001.66
2019-03-16T10:57:24.582Z,1001.62
2019-03-16T10:58:34.295Z,1001.71
2019-03-16T10:59:56.498Z,1001.63
2019-03-16T11:01:05.971Z,1001.59
2019-03-16T11:02:15.947Z,1001.76
2019-03-16T11:03:25.896Z,1001.82
2019-03-16T11:04:35.845Z,1001.76
2019-03-16T11:05:45.806Z,1001.68
2019-03-16T11:06:55.509Z,1001.73
2019-03-16T11:08:05.471Z,1001.78
2019-03-16T11:09:15.180Z,1001.76
2019-03-16T11:10:27.033Z,1001.8
2019-03-16T11:11:36.991Z,1001.8
2019-03-16T11:12:47.047Z,1001.64
2019-03-16T11:13:57.006Z,1001.7
2019-03-16T11:15:06.702Z,1001.76
2019-03-16T11:16:16.657Z,1001.71
2019-03-16T11:17:26.111Z,1001.98
2019-03-16T11:18:35.833Z,1001.74
2019-03-16T11:19:45.801Z,1001.74
2019-03-16T11:20:55.765Z,1001.81
2019-03-16T11:22:05.724Z,1001.72
2019-03-16T11:23:15.672Z,1001.78
2019-03-16T11:24:25.122Z,1001.6
2019-03-16T11:25:35.081Z,1001.63
2019-03-16T11:26:45.065Z,1002.01
2019-03-16T11:27:54.866Z,1001.68
2019-03-16T11:29:09.134Z,1001.78
2019-03-16T11:30:19.377Z,1001.8
2019-03-16T11:31:29.071Z,1001.87
2019-03-16T11:32:38.769Z,1001.92
2019-03-16T11:33:48.668Z,1001.8
2019-03-16T11:34:58.661Z,1001.8
2019-03-16T11:36:08.637Z,1001.77
2019-03-16T11:37:18.585Z,1001.85
2019-03-16T11:38:28.547Z,1002.04
2019-03-16T11:39:38.479Z,1001.77
2019-03-16T11:40:48.466Z,1001.98
2019-03-16T11:41:57.664Z,1001.9
2019-03-16T11:43:07.619Z,1001.99
2019-03-16T11:44:17.581Z,1001.99
2019-03-16T11:45:27.526Z,1002.07
2019-03-16T11:46:37.495Z,1002
2019-03-16T11:47:47.436Z,1001.95
2019-03-16T11:48:57.395Z,1002.17
2019-03-16T11:50:07.435Z,1001.86
2019-03-16T11:51:17.139Z,1001.79
2019-03-16T11:52:26.842Z,1001.84
2019-03-16T11:53:36.795Z,1001.8
2019-03-16T11:54:46.735Z,1001.88
2019-03-16T11:55:56.186Z,1001.87
2019-03-16T11:57:17.845Z,1001.82
2019-03-16T11:58:27.811Z,1001.81
2019-03-16T11:59:37.525Z,1001.8
2019-03-16T12:00:47.221Z,1001.91
2019-03-16T12:02:05.042Z,1001.83
2019-03-16T12:03:14.658Z,1001.86
2019-03-16T12:04:24.346Z,1001.92
2019-03-16T12:05:34.048Z,1001.8
2019-03-16T12:06:44.011Z,1002.06
2019-03-16T12:07:53.984Z,1002.04
2019-03-16T12:09:03.449Z,1001.85
2019-03-16T12:10:13.410Z,1002.26
2019-03-16T12:11:23.444Z,1001.92
2019-03-16T12:12:33.162Z,1001.99
2019-03-16T12:13:44.015Z,1002.03
2019-03-16T12:14:53.855Z,1002.02
2019-03-16T12:16:03.816Z,1002.14
2019-03-16T12:17:13.524Z,1002.18
2019-03-16T12:18:23.239Z,1002.05
2019-03-16T12:19:32.944Z,1001.92
2019-03-16T12:20:42.893Z,1001.95
2019-03-16T12:21:52.852Z,1001.93
2019-03-16T12:23:02.544Z,1001.91
2019-03-16T12:24:12.246Z,1001.89
2019-03-16T12:25:22.221Z,1001.86
2019-03-16T12:26:32.175Z,1001.83
2019-03-16T12:27:41.637Z,1001.86
2019-03-16T12:28:51.586Z,1001.85
2019-03-16T12:30:01.292Z,1001.82
2019-03-16T12:31:11.252Z,1001.84
2019-03-16T12:32:20.963Z,1001.79
2019-03-16T12:33:30.934Z,1001.79
2019-03-16T12:34:40.886Z,1001.86
2019-03-16T12:35:50.340Z,1001.84
2019-03-16T12:37:00.053Z,1001.83
2019-03-16T12:38:10.030Z,1001.84
2019-03-16T12:39:19.968Z,1001.75
2019-03-16T12:40:29.418Z,1001.76
2019-03-16T12:41:39.371Z,1001.69
2019-03-16T12:42:49.077Z,1001.82
2019-03-16T12:43:59.091Z,1001.68
2019-03-16T12:45:08.785Z,1001.69
2019-03-16T12:46:21.221Z,1001.63
2019-03-16T12:47:31.280Z,1001.63
2019-03-16T12:48:41.427Z,1001.63
2019-03-16T12:49:51.243Z,1001.59
2019-03-16T12:51:00.937Z,1001.63
2019-03-16T12:52:10.706Z,1001.65
2019-03-16T12:53:20.413Z,1001.63
2019-03-16T12:54:30.124Z,1001.6
2019-03-16T12:55:40.300Z,1001.6
2019-03-16T12:56:50.003Z,1001.61
2019-03-16T12:57:59.955Z,1001.59
2019-03-16T12:59:10.989Z,1001.54
2019-03-16T13:00:20.777Z,1001.56
2019-03-16T13:01:30.888Z,1001.56
2019-03-16T13:02:40.851Z,1001.52
2019-03-16T13:03:50.819Z,1001.51
2019-03-16T13:05:00.512Z,1001.54
2019-03-16T13:06:10.213Z,1001.5
2019-03-16T13:07:22.116Z,1001.48
2019-03-16T13:08:32.215Z,1001.51
2019-03-16T13:09:42.621Z,1001.55
2019-03-16T13:10:52.401Z,1001.48
2019-03-16T13:12:02.127Z,1001.42
2019-03-16T13:13:11.087Z,1001.43
2019-03-16T13:14:21.035Z,1001.43
2019-03-16T13:15:31.145Z,1001.45
2019-03-16T13:16:41.095Z,1001.41
2019-03-16T13:17:50.561Z,1001.47
2019-03-16T13:19:00.265Z,1001.39
2019-03-16T13:20:13.007Z,1001.48
2019-03-16T13:21:22.982Z,1001.5
2019-03-16T13:22:32.836Z,1001.39
2019-03-16T13:23:42.881Z,1001.37
2019-03-16T13:24:52.589Z,1001.42
2019-03-16T13:26:02.552Z,1001.34
2019-03-16T13:27:12.497Z,1001.27
2019-03-16T13:28:22.240Z,1001.34
2019-03-16T13:29:32.271Z,1001.28
2019-03-16T13:30:42.257Z,1001.3
2019-03-16T13:31:51.971Z,1001.29
2019-03-16T13:33:01.714Z,1001.23
2019-03-16T13:34:11.652Z,1001.22
2019-03-16T13:35:21.620Z,1001.25
2019-03-16T13:36:31.575Z,1001.2
2019-03-16T13:37:41.708Z,1001.2
2019-03-16T13:38:51.679Z,1001.2
2019-03-16T13:40:01.376Z,1001.22
2019-03-16T13:41:11.077Z,1001.24
2019-03-16T13:42:20.838Z,1001.14
2019-03-16T13:43:30.285Z,1001.11
2019-03-16T13:44:39.731Z,1001.09
2019-03-16T13:45:49.901Z,1001.1
2019-03-16T13:46:59.869Z,1001.05
2019-03-16T13:48:09.830Z,1001.06
2019-03-16T13:49:19.548Z,1000.99
2019-03-16T13:50:29.260Z,1000.98
2019-03-16T13:51:40.361Z,1000.93
2019-03-16T13:52:50.884Z,1000.87
2019-03-16T13:54:00.858Z,1000.85
2019-03-16T13:55:10.826Z,1000.81
2019-03-16T13:56:20.370Z,1000.83
2019-03-16T13:57:31.175Z,1000.81
2019-03-16T13:58:41.773Z,1000.8
2019-03-16T13:59:51.730Z,1000.76
2019-03-16T14:01:14.101Z,1000.75
2019-03-16T14:02:23.806Z,1000.69
2019-03-16T14:03:33.802Z,1000.71
2019-03-16T14:04:44.830Z,1000.69
2019-03-16T14:05:55.050Z,1000.64
2019-03-16T14:07:04.768Z,1000.63
2019-03-16T14:08:14.857Z,1000.64
2019-03-16T14:09:24.337Z,1000.6
2019-03-16T14:10:35.485Z,1000.58
2019-03-16T14:11:45.194Z,1000.56
2019-03-16T14:12:55.179Z,1000.52
2019-03-16T14:14:05.153Z,1000.52
2019-03-16T14:15:15.110Z,1000.47
2019-03-16T14:16:25.335Z,1000.46
2019-03-16T14:17:36.672Z,1000.45
2019-03-16T14:18:47.159Z,1000.42
2019-03-16T14:19:56.891Z,1000.38
2019-03-16T14:21:06.891Z,1000.35
2019-03-16T14:22:16.627Z,1000.39
2019-03-16T14:23:26.606Z,1000.3